KHDE/HDE METAR and TAF weather

Enter ICAO airport designator
Station Type Date Time Source
KHDE METAR 2020/08/12 17:55 UTC NOAA

KHDE 121755Z AUTO 17005KT 10SM CLR 30/15 A2998 RMK AO2 T03030145 10303 20203


Station Type Date Time Source
KHDE Decoded METAR 2020/08/12 17:55 UTC NOAA

Brewster Field Airport, NE, United States (KHDE) 40-27N 099-20W
Aug 12, 2020 - 01:55 PM EDT / 2020.08.12 1755 UTC
Wind: from the S (170 degrees) at 6 MPH (5 KT):0
Visibility: 10 mile(s):0
Sky conditions: clear
Temperature: 86.5 F (30.3 C)
Dew Point: 58.1 F (14.5 C)
Relative Humidity: 38%
Pressure (altimeter): 29.98 in. Hg (1015 hPa)
ob: KHDE 121755Z AUTO 17005KT 10SM CLR 30/15 A2998 RMK AO2 T03030145 10303 20203
cycle: 18

Station Type Date Time Source
KHDE TAF UTC NOAA

Error!

Example: see airport list